createdAt,value
2018-07-23T00:01:59.478Z,99.90
2018-07-23T00:04:27.711Z,99.90
2018-07-23T00:06:56.027Z,99.90
2018-07-23T00:09:24.263Z,99.90
2018-07-23T00:11:52.505Z,99.90
2018-07-23T00:14:20.734Z,99.90
2018-07-23T00:16:49.005Z,99.90
2018-07-23T00:19:17.335Z,99.90
2018-07-23T00:21:45.666Z,99.90
2018-07-23T00:24:13.939Z,99.90
2018-07-23T00:26:42.223Z,99.90
2018-07-23T00:29:10.499Z,99.90
2018-07-23T00:31:38.785Z,99.90
2018-07-23T00:34:07.043Z,99.90
2018-07-23T00:36:35.345Z,99.90
2018-07-23T00:39:04.566Z,99.90
2018-07-23T00:41:32.839Z,99.90
2018-07-23T00:44:01.180Z,99.90
2018-07-23T00:46:29.415Z,99.90
2018-07-23T00:48:57.675Z,99.90
2018-07-23T00:51:25.950Z,99.90
2018-07-23T00:53:54.236Z,99.90
2018-07-23T00:56:22.502Z,99.90
2018-07-23T00:58:50.964Z,99.90
2018-07-23T01:01:19.293Z,99.90
2018-07-23T01:06:15.620Z,99.90
2018-07-23T01:08:43.818Z,99.90
2018-07-23T01:11:12.063Z,99.90
2018-07-23T01:13:40.374Z,99.90
2018-07-23T01:16:08.645Z,99.90
2018-07-23T01:18:36.849Z,99.90
2018-07-23T01:21:05.082Z,99.90
2018-07-23T01:23:33.319Z,99.90
2018-07-23T01:26:01.665Z,99.90
2018-07-23T01:28:29.970Z,99.90
2018-07-23T01:30:58.260Z,99.90
2018-07-23T01:33:26.565Z,99.90
2018-07-23T01:35:54.811Z,99.90
2018-07-23T01:38:23.109Z,99.90
2018-07-23T01:40:51.436Z,99.90
2018-07-23T01:43:19.678Z,99.90
2018-07-23T01:48:16.575Z,99.90
2018-07-23T01:50:44.827Z,99.90
2018-07-23T01:55:41.155Z,99.90
2018-07-23T01:58:09.363Z,99.90
2018-07-23T02:00:37.600Z,99.90
2018-07-23T02:03:05.855Z,99.90
2018-07-23T02:05:34.090Z,99.90
2018-07-23T02:08:02.363Z,99.90
2018-07-23T02:10:30.691Z,99.90
2018-07-23T02:12:58.990Z,99.90
2018-07-23T02:15:27.231Z,99.90
2018-07-23T02:17:55.497Z,99.90
2018-07-23T02:20:23.779Z,99.90
2018-07-23T02:22:52.013Z,99.90
2018-07-23T02:25:20.276Z,99.90
2018-07-23T02:27:48.537Z,99.90
2018-07-23T02:30:16.825Z,99.90
2018-07-23T02:32:45.091Z,99.90
2018-07-23T02:35:13.338Z,99.90
2018-07-23T02:37:41.590Z,99.90
2018-07-23T02:40:09.838Z,99.90
2018-07-23T02:45:06.271Z,99.90
2018-07-23T02:47:34.535Z,99.90
2018-07-23T02:50:02.812Z,99.90
2018-07-23T02:52:31.181Z,99.90
2018-07-23T02:54:59.415Z,99.90
2018-07-23T02:57:27.674Z,99.90
2018-07-23T02:59:56.183Z,99.90
2018-07-23T03:02:24.451Z,99.90
2018-07-23T03:04:52.731Z,99.90
2018-07-23T03:07:21.024Z,99.90
2018-07-23T03:09:49.245Z,99.90
2018-07-23T03:12:24.147Z,99.90
2018-07-23T03:14:52.441Z,99.90
2018-07-23T03:17:20.729Z,99.90
2018-07-23T03:22:17.037Z,99.90
2018-07-23T03:24:45.507Z,99.90
2018-07-23T03:27:13.776Z,99.90
2018-07-23T03:29:42.083Z,99.90
2018-07-23T03:32:10.379Z,99.90
2018-07-23T03:34:38.617Z,99.90
2018-07-23T03:37:06.914Z,99.90
2018-07-23T03:39:35.199Z,99.90
2018-07-23T03:42:03.495Z,99.90
2018-07-23T03:44:31.848Z,99.90
2018-07-23T03:47:00.158Z,99.90
2018-07-23T03:49:28.700Z,99.90
2018-07-23T03:51:57.070Z,99.90
2018-07-23T03:54:25.390Z,99.90
2018-07-23T03:59:21.768Z,99.90
2018-07-23T04:01:50.080Z,99.90
2018-07-23T04:04:18.448Z,99.90
2018-07-23T04:06:48.235Z,99.90
2018-07-23T04:09:16.932Z,99.90
2018-07-23T04:11:45.919Z,99.90
2018-07-23T04:14:14.607Z,99.90
2018-07-23T04:16:42.881Z,99.90
2018-07-23T04:19:11.155Z,99.90
2018-07-23T04:21:39.461Z,99.90
2018-07-23T04:24:07.796Z,99.90
2018-07-23T04:26:36.062Z,99.90
2018-07-23T04:29:04.389Z,99.90
2018-07-23T04:31:32.687Z,99.90
2018-07-23T04:34:00.992Z,99.90
2018-07-23T04:36:29.294Z,99.90
2018-07-23T04:38:57.538Z,99.90
2018-07-23T04:41:25.810Z,99.90
2018-07-23T04:46:22.213Z,99.90
2018-07-23T04:48:50.501Z,99.90
2018-07-23T04:51:18.749Z,99.90
2018-07-23T04:53:47.064Z,99.90
2018-07-23T04:56:15.337Z,99.90
2018-07-23T04:58:43.603Z,99.90
2018-07-23T05:01:11.870Z,99.90
2018-07-23T05:03:40.120Z,99.90
2018-07-23T05:06:08.415Z,99.90
2018-07-23T05:08:36.714Z,99.90
2018-07-23T05:11:05.162Z,99.90
2018-07-23T05:13:33.389Z,99.90
2018-07-23T05:16:02.172Z,99.90
2018-07-23T05:18:30.509Z,99.90
2018-07-23T05:20:58.743Z,99.90
2018-07-23T05:23:27.024Z,99.90
2018-07-23T05:25:55.303Z,99.90
2018-07-23T05:28:23.528Z,99.90
2018-07-23T05:30:51.834Z,99.90
2018-07-23T05:35:48.110Z,99.90
2018-07-23T05:38:16.518Z,99.90
2018-07-23T05:40:44.802Z,99.90
2018-07-23T05:43:13.084Z,99.90
2018-07-23T05:45:41.333Z,99.90
2018-07-23T05:48:09.699Z,99.90
2018-07-23T05:50:38.002Z,99.90
2018-07-23T05:53:06.307Z,99.90
2018-07-23T05:55:34.596Z,99.90
2018-07-23T05:58:02.828Z,99.90
2018-07-23T06:00:31.067Z,99.90
2018-07-23T06:02:59.287Z,99.90
2018-07-23T06:05:27.570Z,99.90
2018-07-23T06:07:55.840Z,99.90
2018-07-23T06:10:24.110Z,99.90
2018-07-23T06:12:53.017Z,99.90
2018-07-23T06:15:22.012Z,99.90
2018-07-23T06:17:50.289Z,99.90
2018-07-23T06:20:18.514Z,99.90
2018-07-23T06:22:46.747Z,99.90
2018-07-23T06:27:43.102Z,99.90
2018-07-23T06:30:11.880Z,99.90
2018-07-23T06:32:40.108Z,99.90
2018-07-23T06:35:08.355Z,99.90
2018-07-23T06:37:36.716Z,99.90
2018-07-23T06:40:06.607Z,99.90
2018-07-23T06:42:34.864Z,99.90
2018-07-23T06:45:03.123Z,99.90
2018-07-23T06:47:31.376Z,99.90
2018-07-23T06:49:59.654Z,99.90
2018-07-23T06:52:27.996Z,99.90
2018-07-23T06:54:56.253Z,99.90
2018-07-23T06:57:24.571Z,99.90
2018-07-23T06:59:52.839Z,99.90
2018-07-23T07:02:21.139Z,99.90
2018-07-23T07:04:49.409Z,99.90
2018-07-23T07:09:46.197Z,99.90
2018-07-23T07:12:14.476Z,99.90
2018-07-23T07:14:42.756Z,99.40
2018-07-23T07:17:11.099Z,97.90
2018-07-23T07:22:07.520Z,98.60
2018-07-23T07:24:35.829Z,99.10
2018-07-23T07:27:04.064Z,99.90
2018-07-23T07:29:32.511Z,99.90
2018-07-23T07:32:00.881Z,99.90
2018-07-23T07:34:29.136Z,99.90
2018-07-23T07:36:57.600Z,99.90
2018-07-23T07:44:22.174Z,99.90
2018-07-23T07:46:50.626Z,99.90
2018-07-23T07:49:18.899Z,99.90
2018-07-23T07:51:47.130Z,99.90
2018-07-23T07:54:15.415Z,99.40
2018-07-23T07:56:43.685Z,98.40
2018-07-23T07:59:12.128Z,99.30
2018-07-23T08:01:41.256Z,99.10
2018-07-23T08:04:09.583Z,98.00
2018-07-23T08:06:37.912Z,97.50
2018-07-23T08:09:07.922Z,96.60
2018-07-23T08:11:36.484Z,97.20
2018-07-23T08:14:04.842Z,97.00
2018-07-23T08:16:33.101Z,96.70
2018-07-23T08:19:01.368Z,95.60
2018-07-23T08:21:29.678Z,96.10
2018-07-23T08:23:57.972Z,96.70
2018-07-23T08:26:26.232Z,96.60
2018-07-23T08:28:54.502Z,96.00
2018-07-23T08:31:22.764Z,96.30
2018-07-23T08:33:51.059Z,96.70
2018-07-23T08:36:19.353Z,94.90
2018-07-23T08:38:47.654Z,93.60
2018-07-23T08:41:16.619Z,93.10
2018-07-23T08:43:44.906Z,92.40
2018-07-23T08:46:13.301Z,92.20
2018-07-23T08:48:41.640Z,91.90
2018-07-23T08:51:10.064Z,91.20
2018-07-23T08:53:38.280Z,90.50
2018-07-23T08:56:06.581Z,90.00
2018-07-23T08:58:34.824Z,86.20
2018-07-23T09:01:03.116Z,82.60
2018-07-23T09:03:31.357Z,78.80
2018-07-23T09:05:59.604Z,79.90
2018-07-23T09:08:27.931Z,73.80
2018-07-23T09:10:56.151Z,74.00
2018-07-23T09:13:24.725Z,71.60
2018-07-23T09:15:52.984Z,67.30
2018-07-23T09:18:21.256Z,65.70
2018-07-23T09:20:49.591Z,67.00
2018-07-23T09:23:17.845Z,62.80
2018-07-23T09:25:46.599Z,59.50
2018-07-23T09:28:15.714Z,59.10
2018-07-23T09:30:49.522Z,58.50
2018-07-23T09:33:17.816Z,57.10
2018-07-23T09:35:46.079Z,55.50
2018-07-23T09:38:14.335Z,56.00
2018-07-23T09:40:42.863Z,57.60
2018-07-23T09:43:11.349Z,55.40
2018-07-23T09:45:39.661Z,55.20
2018-07-23T09:50:35.987Z,53.40
2018-07-23T09:53:04.308Z,51.70
2018-07-23T09:55:32.857Z,51.60
2018-07-23T09:58:01.143Z,52.60
2018-07-23T10:00:34.897Z,51.90
2018-07-23T10:03:03.286Z,49.40
2018-07-23T10:05:32.295Z,51.00
2018-07-23T10:08:00.500Z,48.00
2018-07-23T10:10:28.789Z,51.90
2018-07-23T10:12:57.110Z,50.30
2018-07-23T10:15:25.395Z,52.80
2018-07-23T10:17:53.732Z,55.50
2018-07-23T10:20:22.085Z,60.00
2018-07-23T10:22:50.393Z,62.90
2018-07-23T10:25:18.851Z,63.60
2018-07-23T10:27:47.156Z,66.20
2018-07-23T10:30:15.472Z,67.10
2018-07-23T10:32:43.783Z,68.60
2018-07-23T10:35:12.084Z,70.10
2018-07-23T10:37:40.434Z,70.20
2018-07-23T10:40:08.752Z,69.00
2018-07-23T10:42:37.203Z,66.50
2018-07-23T10:45:05.944Z,65.20
2018-07-23T10:50:02.262Z,63.60
2018-07-23T10:52:30.590Z,62.00
2018-07-23T10:54:58.880Z,61.00
2018-07-23T10:57:27.147Z,58.40
2018-07-23T10:59:55.459Z,56.60
2018-07-23T11:02:23.773Z,57.10
2018-07-23T11:04:52.153Z,58.20
2018-07-23T11:09:48.568Z,53.90
2018-07-23T11:12:16.839Z,50.10
2018-07-23T11:14:45.093Z,50.10
2018-07-23T11:17:13.343Z,51.20
2018-07-23T11:19:41.628Z,48.30
2018-07-23T11:22:09.879Z,48.40
2018-07-23T11:27:06.198Z,51.00
2018-07-23T11:29:34.515Z,47.90
2018-07-23T11:32:02.847Z,47.70
2018-07-23T11:34:31.069Z,47.50
2018-07-23T11:36:59.384Z,45.80
2018-07-23T11:39:27.710Z,47.70
2018-07-23T11:41:55.987Z,48.50
2018-07-23T11:46:52.378Z,47.60
2018-07-23T11:49:23.720Z,50.40
2018-07-23T11:51:51.978Z,51.70
2018-07-23T11:54:20.268Z,52.10
2018-07-23T11:56:48.606Z,55.00
2018-07-23T11:59:16.861Z,56.70
2018-07-23T12:01:45.170Z,54.50
2018-07-23T12:06:41.451Z,50.20
2018-07-23T12:09:11.155Z,48.20
2018-07-23T12:11:39.644Z,51.90
2018-07-23T12:14:08.216Z,54.70
2018-07-23T12:16:36.782Z,56.20
2018-07-23T12:19:05.096Z,57.10
2018-07-23T12:21:33.348Z,59.10
2018-07-23T12:24:02.062Z,59.30
2018-07-23T12:26:30.323Z,59.10
2018-07-23T12:28:58.569Z,58.80
2018-07-23T12:31:26.828Z,57.20
2018-07-23T12:33:55.085Z,53.50
2018-07-23T12:36:24.020Z,52.60
2018-07-23T12:38:52.597Z,51.30
2018-07-23T12:41:21.194Z,49.50
2018-07-23T12:43:49.814Z,52.70
2018-07-23T12:46:18.376Z,55.30
2018-07-23T12:48:46.696Z,57.10
2018-07-23T12:51:15.013Z,58.70
2018-07-23T12:53:43.232Z,59.50
2018-07-23T12:56:11.498Z,60.40
2018-07-23T12:58:39.787Z,60.30
2018-07-23T13:01:08.728Z,60.30
2018-07-23T13:03:36.982Z,60.70
2018-07-23T13:06:05.280Z,60.50
2018-07-23T13:08:33.600Z,61.10
2018-07-23T13:11:01.923Z,59.40
2018-07-23T13:13:30.188Z,57.40
2018-07-23T13:18:26.579Z,56.40
2018-07-23T13:20:54.864Z,56.20
2018-07-23T13:23:23.258Z,55.20
2018-07-23T13:25:51.624Z,55.90
2018-07-23T13:28:19.837Z,57.30
2018-07-23T13:30:48.139Z,56.80
2018-07-23T13:33:16.507Z,57.50
2018-07-23T13:35:44.755Z,57.30
2018-07-23T13:38:13.121Z,56.10
2018-07-23T13:40:41.737Z,56.20
2018-07-23T13:43:10.153Z,56.20
2018-07-23T13:45:38.471Z,54.90
2018-07-23T13:48:06.973Z,54.70
2018-07-23T13:50:35.466Z,55.00
2018-07-23T13:55:31.829Z,56.10
2018-07-23T13:58:00.107Z,55.90
2018-07-23T14:00:28.401Z,55.90
2018-07-23T14:02:56.745Z,55.80
2018-07-23T14:05:25.017Z,56.50
2018-07-23T14:07:53.257Z,56.70
2018-07-23T14:10:21.546Z,57.50
2018-07-23T14:12:49.807Z,59.10
2018-07-23T14:15:18.067Z,59.90
2018-07-23T14:17:46.436Z,60.70
2018-07-23T14:20:14.679Z,60.70
2018-07-23T14:25:10.919Z,58.90
2018-07-23T14:27:39.211Z,58.30
2018-07-23T14:30:07.503Z,58.70
2018-07-23T14:32:35.756Z,57.60
2018-07-23T14:35:04.083Z,58.30
2018-07-23T14:37:32.672Z,57.30
2018-07-23T14:40:01.041Z,55.50
2018-07-23T14:42:29.267Z,55.90
2018-07-23T14:44:57.612Z,56.20
2018-07-23T14:47:25.895Z,57.60
2018-07-23T14:49:54.144Z,57.60
2018-07-23T14:52:22.439Z,57.90
2018-07-23T14:54:50.690Z,58.50
2018-07-23T14:57:19.079Z,59.00
2018-07-23T14:59:47.311Z,58.80
2018-07-23T15:02:15.549Z,57.20
2018-07-23T15:04:43.825Z,58.20
2018-07-23T15:07:12.078Z,59.40
2018-07-23T15:09:40.481Z,60.30
2018-07-23T15:12:08.798Z,61.20
2018-07-23T15:14:37.015Z,61.10
2018-07-23T15:17:05.253Z,60.00
2018-07-23T15:19:33.557Z,59.90
2018-07-23T15:22:02.627Z,60.50
2018-07-23T15:24:30.828Z,59.40
2018-07-23T15:26:59.116Z,60.30
2018-07-23T15:29:27.391Z,61.20
2018-07-23T15:31:55.668Z,61.00
2018-07-23T15:34:24.015Z,62.30
2018-07-23T15:36:52.277Z,61.80
2018-07-23T15:39:20.608Z,63.10
2018-07-23T15:41:48.872Z,61.40
2018-07-23T15:44:17.195Z,60.00
2018-07-23T15:49:13.361Z,60.50
2018-07-23T15:51:41.626Z,59.40
2018-07-23T15:54:09.869Z,61.20
2018-07-23T15:56:38.140Z,60.70
2018-07-23T15:59:06.422Z,60.10
2018-07-23T16:01:34.591Z,60.80
2018-07-23T16:04:02.811Z,61.60
2018-07-23T16:06:31.040Z,62.40
2018-07-23T16:08:59.282Z,61.60
2018-07-23T16:11:27.551Z,62.10
2018-07-23T16:13:55.783Z,61.30
2018-07-23T16:18:52.193Z,64.90
2018-07-23T16:21:21.271Z,63.00
2018-07-23T16:23:49.537Z,65.30
2018-07-23T16:26:17.830Z,64.70
2018-07-23T16:28:46.048Z,65.20
2018-07-23T16:31:14.302Z,65.20
2018-07-23T16:33:42.542Z,64.80
2018-07-23T16:36:10.780Z,65.20
2018-07-23T16:43:34.994Z,64.10
2018-07-23T16:46:03.254Z,63.20
2018-07-23T16:48:31.513Z,64.60
2018-07-23T16:50:59.721Z,64.40
2018-07-23T16:53:27.991Z,64.70
2018-07-23T16:55:56.215Z,65.30
2018-07-23T16:58:24.476Z,64.60
2018-07-23T17:00:52.710Z,65.30
2018-07-23T17:03:21.008Z,64.30
2018-07-23T17:05:49.254Z,65.70
2018-07-23T17:08:17.967Z,65.80
2018-07-23T17:10:46.220Z,67.10
2018-07-23T17:13:14.575Z,67.90
2018-07-23T17:15:42.838Z,68.30
2018-07-23T17:18:11.544Z,67.20
2018-07-23T17:20:39.619Z,67.90
2018-07-23T17:23:07.851Z,68.30
2018-07-23T17:25:36.067Z,69.90
2018-07-23T17:28:04.336Z,69.00
2018-07-23T17:30:32.555Z,69.80
2018-07-23T17:33:00.792Z,70.60
2018-07-23T17:35:29.031Z,70.70
2018-07-23T17:37:57.306Z,71.40
2018-07-23T17:40:25.583Z,71.50
2018-07-23T17:42:53.798Z,72.30
2018-07-23T17:45:22.121Z,72.50
2018-07-23T17:47:50.394Z,72.50
2018-07-23T17:50:18.659Z,71.40
2018-07-23T17:52:46.916Z,72.30
2018-07-23T17:55:15.173Z,74.70
2018-07-23T17:57:43.450Z,74.20
2018-07-23T18:00:11.763Z,74.30
2018-07-23T18:05:11.491Z,76.70
2018-07-23T18:07:39.777Z,77.10
2018-07-23T18:10:07.979Z,75.70
2018-07-23T18:12:36.219Z,76.70
2018-07-23T18:15:04.747Z,76.20
2018-07-23T18:17:33.001Z,76.10
2018-07-23T18:20:01.317Z,76.20
2018-07-23T18:22:29.667Z,76.40
2018-07-23T18:24:57.910Z,76.90
2018-07-23T18:27:26.214Z,76.70
2018-07-23T18:29:54.459Z,78.80
2018-07-23T18:32:22.798Z,79.30
2018-07-23T18:34:51.031Z,80.00
2018-07-23T18:37:19.312Z,77.80
2018-07-23T18:39:47.555Z,80.30
2018-07-23T18:42:15.812Z,84.30
2018-07-23T18:44:44.055Z,82.90
2018-07-23T18:47:12.318Z,82.00
2018-07-23T18:49:53.604Z,82.30
2018-07-23T18:52:22.465Z,84.80
2018-07-23T18:54:52.084Z,84.40
2018-07-23T18:57:20.312Z,85.10
2018-07-23T18:59:48.637Z,84.60
2018-07-23T19:02:18.046Z,86.20
2018-07-23T19:04:46.324Z,86.20
2018-07-23T19:07:14.675Z,87.20
2018-07-23T19:09:43.281Z,88.40
2018-07-23T19:12:12.081Z,88.70
2018-07-23T19:14:40.496Z,89.90
2018-07-23T19:17:11.325Z,90.30
2018-07-23T19:19:39.599Z,90.40
2018-07-23T19:22:07.970Z,90.50
2018-07-23T19:24:36.217Z,90.80
2018-07-23T19:27:04.696Z,91.60
2018-07-23T19:29:33.025Z,91.80
2018-07-23T19:32:01.326Z,92.00
2018-07-23T19:36:57.591Z,92.90
2018-07-23T19:39:25.790Z,92.50
2018-07-23T19:41:54.173Z,92.90
2018-07-23T19:44:22.508Z,93.10
2018-07-23T19:46:50.766Z,93.40
2018-07-23T19:49:19.157Z,93.40
2018-07-23T19:51:47.459Z,94.00
2018-07-23T19:54:15.737Z,94.40
2018-07-23T19:56:44.026Z,95.10
2018-07-23T19:59:12.313Z,96.40
2018-07-23T20:01:40.626Z,96.00
2018-07-23T20:06:36.901Z,96.50
2018-07-23T20:09:08.048Z,96.80
2018-07-23T20:11:36.370Z,97.10
2018-07-23T20:14:04.610Z,97.50
2018-07-23T20:16:33.670Z,97.90
2018-07-23T20:21:30.021Z,98.50
2018-07-23T20:23:58.289Z,99.00
2018-07-23T20:28:54.798Z,99.40
2018-07-23T20:31:23.154Z,99.50
2018-07-23T20:33:51.481Z,99.40
2018-07-23T20:36:19.812Z,99.90
2018-07-23T20:38:48.139Z,99.90
2018-07-23T20:41:16.470Z,99.90
2018-07-23T20:43:44.756Z,99.90
2018-07-23T20:46:13.174Z,99.90
2018-07-23T20:51:09.565Z,99.90
2018-07-23T20:53:37.859Z,99.90
2018-07-23T20:56:06.126Z,99.90
2018-07-23T20:58:34.418Z,99.90
2018-07-23T21:01:02.669Z,99.90
2018-07-23T21:03:31.008Z,99.90
2018-07-23T21:05:59.251Z,99.90
2018-07-23T21:08:27.602Z,99.90
2018-07-23T21:10:55.852Z,99.90
2018-07-23T21:13:24.188Z,99.90
2018-07-23T21:15:52.447Z,99.90
2018-07-23T21:18:20.765Z,99.90
2018-07-23T21:20:48.992Z,99.90
2018-07-23T21:23:17.199Z,99.90
2018-07-23T21:25:45.471Z,99.90
2018-07-23T21:28:13.758Z,99.90
2018-07-23T21:30:42.011Z,99.90
2018-07-23T21:33:10.274Z,99.90
2018-07-23T21:35:38.521Z,99.90
2018-07-23T21:38:06.798Z,99.90
2018-07-23T21:40:35.047Z,99.90
2018-07-23T21:43:03.335Z,99.90
2018-07-23T21:45:31.722Z,99.90
2018-07-23T21:48:00.029Z,99.90
2018-07-23T21:50:28.319Z,99.90
2018-07-23T21:52:56.639Z,99.90
2018-07-23T21:55:24.881Z,99.90
2018-07-23T21:57:53.148Z,99.90
2018-07-23T22:00:21.384Z,99.90
2018-07-23T22:02:49.642Z,99.90
2018-07-23T22:05:17.876Z,99.90
2018-07-23T22:07:46.160Z,99.90
2018-07-23T22:10:14.499Z,99.90
2018-07-23T22:12:42.755Z,99.90
2018-07-23T22:15:11.576Z,99.90
2018-07-23T22:17:39.857Z,99.90
2018-07-23T22:20:08.806Z,99.90
2018-07-23T22:22:37.078Z,99.90
2018-07-23T22:25:05.419Z,99.90
2018-07-23T22:27:33.674Z,99.90
2018-07-23T22:30:01.992Z,99.90
2018-07-23T22:32:30.276Z,99.90
2018-07-23T22:34:58.541Z,99.90
2018-07-23T22:37:26.803Z,99.90
2018-07-23T22:39:55.075Z,99.90
2018-07-23T22:42:24.274Z,99.90
2018-07-23T22:44:52.592Z,99.90
2018-07-23T22:47:20.898Z,99.90
2018-07-23T22:49:49.199Z,99.90
2018-07-23T22:52:17.498Z,99.90
2018-07-23T22:54:45.727Z,99.90
2018-07-23T22:57:14.049Z,99.90
2018-07-23T22:59:42.394Z,99.90
2018-07-23T23:02:10.726Z,99.90
2018-07-23T23:07:07.094Z,99.90
2018-07-23T23:09:35.487Z,99.90
2018-07-23T23:12:03.899Z,99.90
2018-07-23T23:14:32.346Z,99.90
2018-07-23T23:17:00.578Z,99.90
2018-07-23T23:19:28.880Z,99.90
2018-07-23T23:21:57.100Z,99.90
2018-07-23T23:24:25.383Z,99.90
2018-07-23T23:26:53.902Z,99.90
2018-07-23T23:31:50.198Z,99.90
2018-07-23T23:34:18.459Z,99.90
2018-07-23T23:36:46.756Z,99.90
2018-07-23T23:39:14.979Z,99.90
2018-07-23T23:41:43.273Z,99.90
2018-07-23T23:44:11.535Z,99.90
2018-07-23T23:46:39.834Z,99.90
2018-07-23T23:49:08.053Z,99.90
2018-07-23T23:51:36.343Z,99.90
2018-07-23T23:54:04.598Z,99.90
2018-07-23T23:56:32.836Z,99.90
2018-07-23T23:59:01.141Z,99.90
